Time;durP1;ratioP1;P1;durP2;ratioP2;P2;SDS_P1;SDS_P2;PMS_P1;PMS_P2;Temp;Humidity;BMP_temperature;BMP_pressure;BME280_temperature;BME280_humidity;BME280_pressure;Samples;Min_cycle;Max_cycle;Signal;HPM_P1;HPM_P2
2022/01/04 19:21:44;;;;;;;99.47;42.22;;;;;;;;;;5130388;27;21145;-82
2022/01/04 19:24:12;;;;;;;76.85;36.67;;;;;;;;;;5105434;27;20533;-73
2022/01/04 19:26:39;;;;;;;54.10;34.38;;;;;;;;;;5148010;27;20046;-82
2022/01/04 19:29:06;;;;;;;84.75;36.08;;;;;;;;;;5112077;27;20043;-80
2022/01/04 19:31:35;;;;;;;132.98;40.20;;;;;;;;;;5112935;27;20047;-80
2022/01/04 19:36:32;;;;;;;75.22;38.45;;;;;;;;;;5131026;27;20043;-80
2022/01/04 19:39:01;;;;;;;88.63;34.00;;;;;;;;;;5131973;27;20047;-80
2022/01/04 19:41:31;;;;;;;108.25;34.67;;;;;;;;;;5135744;27;20139;-80
2022/01/04 19:44:11;;;;;;;73.50;32.80;;;;;;;;;;5112420;27;20040;-80
2022/01/04 19:46:39;;;;;;;147.02;36.92;;;;;;;;;;5111773;27;20130;-80
2022/01/04 19:49:07;;;;;;;96.05;37.42;;;;;;;;;;5103702;28;20043;-81
2022/01/04 19:51:34;;;;;;;248.30;44.60;;;;;;;;;;5111472;27;20058;-80
2022/01/04 19:54:01;;;;;;;101.85;38.00;;;;;;;;;;5111650;28;20386;-80
2022/01/04 19:56:29;;;;;;;152.27;39.85;;;;;;;;;;5129676;27;20045;-77
2022/01/04 19:58:57;;;;;;;68.40;35.42;;;;;;;;;;5113536;27;20058;-76
2022/01/04 20:01:24;;;;;;;77.75;36.30;;;;;;;;;;5110792;27;20061;-78
2022/01/04 20:03:53;;;;;;;61.30;32.25;;;;;;;;;;5129018;27;20075;-75
2022/01/04 20:06:21;;;;;;;90.13;34.60;;;;;;;;;;5111702;27;20078;-76
2022/01/04 20:08:49;;;;;;;58.97;30.65;;;;;;;;;;5102445;28;20047;-76
2022/01/04 20:11:17;;;;;;;84.65;35.45;;;;;;;;;;5117062;27;20074;-75
2022/01/04 20:13:46;;;;;;;62.67;35.67;;;;;;;;;;5110007;27;20093;-77
2022/01/04 20:16:16;;;;;;;61.35;33.80;;;;;;;;;;5094910;27;20087;-76
2022/01/04 20:18:43;;;;;;;62.45;34.42;;;;;;;;;;5107698;27;20051;-76
2022/01/04 20:21:14;;;;;;;68.28;34.92;;;;;;;;;;5109768;28;20159;-74
2022/01/04 20:23:42;;;;;;;75.78;36.88;;;;;;;;;;5128756;27;20464;-75
2022/01/04 20:26:09;;;;;;;70.30;37.45;;;;;;;;;;5110791;27;20498;-75
2022/01/04 20:28:37;;;;;;;97.50;37.40;;;;;;;;;;5143186;27;20165;-72
2022/01/04 20:31:05;;;;;;;63.03;35.05;;;;;;;;;;5146134;27;20070;-72
2022/01/04 20:33:33;;;;;;;72.88;37.72;;;;;;;;;;5110541;28;20039;-78
2022/01/04 20:36:00;;;;;;;98.65;40.55;;;;;;;;;;5103843;28;20544;-77
2022/01/04 20:38:27;;;;;;;58.70;32.67;;;;;;;;;;5095893;28;20127;-76
2022/01/04 20:40:55;;;;;;;90.63;41.20;;;;;;;;;;5110437;28;20043;-78
2022/01/04 20:43:22;;;;;;;99.43;34.92;;;;;;;;;;5069744;28;20047;-76
2022/01/04 20:45:49;;;;;;;81.00;37.25;;;;;;;;;;5091738;28;20039;-79
2022/01/04 20:48:17;;;;;;;83.88;36.58;;;;;;;;;;5074982;28;20574;-79
2022/01/04 20:50:44;;;;;;;97.75;41.08;;;;;;;;;;5087368;28;20472;-78
2022/01/04 20:53:11;;;;;;;61.08;35.47;;;;;;;;;;5071647;28;20044;-79
2022/01/04 20:55:38;;;;;;;81.55;36.17;;;;;;;;;;5097409;28;20154;-79
2022/01/04 20:58:06;;;;;;;106.25;36.63;;;;;;;;;;5076570;28;20044;-77
2022/01/04 21:00:33;;;;;;;58.92;32.65;;;;;;;;;;5116886;27;20130;-73
2022/01/04 21:03:00;;;;;;;62.03;33.55;;;;;;;;;;5088743;28;20138;-74
2022/01/04 21:05:31;;;;;;;49.38;28.92;;;;;;;;;;5104885;27;20172;-72
2022/01/04 21:08:00;;;;;;;60.85;32.10;;;;;;;;;;5092167;28;20051;-72
2022/01/04 21:10:27;;;;;;;62.65;32.50;;;;;;;;;;5103927;27;20055;-73
2022/01/04 21:12:54;;;;;;;80.10;37.55;;;;;;;;;;5098053;27;20043;-74
2022/01/04 21:15:21;;;;;;;54.08;30.55;;;;;;;;;;5080892;28;20055;-75
2022/01/04 21:17:49;;;;;;;83.05;34.53;;;;;;;;;;5075602;27;20058;-73
2022/01/04 21:20:16;;;;;;;59.13;32.97;;;;;;;;;;5110486;27;20050;-76
2022/01/04 21:22:43;;;;;;;55.60;33.95;;;;;;;;;;5105931;27;20135;-76
2022/01/04 21:25:11;;;;;;;58.33;35.33;;;;;;;;;;5078729;28;20047;-76
2022/01/04 21:27:39;;;;;;;47.33;29.50;;;;;;;;;;5087647;28;20077;-76
2022/01/04 21:30:10;;;;;;;48.45;29.83;;;;;;;;;;5086810;28;20063;-73
2022/01/04 21:32:37;;;;;;;49.28;29.58;;;;;;;;;;5086964;28;20071;-73
2022/01/04 21:35:07;;;;;;;52.80;31.58;;;;;;;;;;5099173;28;20055;-75
2022/01/04 21:37:36;;;;;;;50.70;29.67;;;;;;;;;;5081211;27;20043;-75
2022/01/04 21:40:05;;;;;;;56.75;29.70;;;;;;;;;;5090137;28;20054;-77
2022/01/04 21:42:32;;;;;;;56.30;31.35;;;;;;;;;;5093393;28;20051;-74
2022/01/04 21:44:59;;;;;;;65.43;33.72;;;;;;;;;;5074695;27;20074;-72
2022/01/04 21:47:27;;;;;;;52.45;33.50;;;;;;;;;;5103843;28;20055;-76
2022/01/04 21:49:54;;;;;;;48.90;32.13;;;;;;;;;;5107417;27;20514;-76
2022/01/04 21:52:21;;;;;;;59.10;32.83;;;;;;;;;;5113716;27;20043;-77
2022/01/04 21:54:49;;;;;;;76.63;35.03;;;;;;;;;;5091300;28;20420;-73
2022/01/04 21:57:17;;;;;;;51.15;31.05;;;;;;;;;;5099466;27;20036;-76
2022/01/04 21:59:44;;;;;;;55.67;31.13;;;;;;;;;;5090108;28;20144;-74
2022/01/04 22:02:11;;;;;;;60.55;33.70;;;;;;;;;;5086148;27;20043;-75
2022/01/04 22:04:39;;;;;;;60.78;31.63;;;;;;;;;;5090438;28;20075;-78
2022/01/04 22:07:06;;;;;;;52.22;31.67;;;;;;;;;;5117420;27;20040;-77
2022/01/04 22:09:35;;;;;;;42.33;24.85;;;;;;;;;;5077521;28;20082;-75
2022/01/04 22:12:14;;;;;;;32.05;21.83;;;;;;;;;;5089743;28;20118;-75
2022/01/04 22:14:41;;;;;;;31.90;21.70;;;;;;;;;;5094344;28;20130;-75
2022/01/04 22:17:08;;;;;;;33.35;22.88;;;;;;;;;;5115742;27;20044;-74
2022/01/04 22:19:36;;;;;;;27.73;18.48;;;;;;;;;;5083302;28;20070;-75
2022/01/04 22:22:04;;;;;;;33.90;21.23;;;;;;;;;;5106193;27;20054;-74
2022/01/04 22:24:31;;;;;;;29.15;19.45;;;;;;;;;;5083615;28;20048;-74
2022/01/04 22:26:58;;;;;;;37.22;21.80;;;;;;;;;;5110941;27;20078;-74
2022/01/04 22:29:25;;;;;;;35.75;23.77;;;;;;;;;;5097585;27;20086;-76
2022/01/04 22:31:52;;;;;;;28.08;20.02;;;;;;;;;;5097343;27;20047;-75
2022/01/04 22:34:19;;;;;;;39.45;27.02;;;;;;;;;;5116998;27;20051;-75
2022/01/04 22:36:46;;;;;;;67.18;48.55;;;;;;;;;;5094278;28;20044;-75
2022/01/04 22:39:13;;;;;;;40.85;24.27;;;;;;;;;;5108201;27;20074;-74
2022/01/04 22:41:41;;;;;;;35.63;22.75;;;;;;;;;;5114552;27;20092;-74
2022/01/04 22:44:09;;;;;;;36.25;21.85;;;;;;;;;;5114325;27;20043;-75
2022/01/04 22:46:37;;;;;;;27.23;18.80;;;;;;;;;;5114227;27;20096;-75
2022/01/04 22:49:04;;;;;;;37.67;22.92;;;;;;;;;;5132422;27;20144;-74
2022/01/04 22:51:32;;;;;;;33.97;21.80;;;;;;;;;;5132350;27;20104;-74
2022/01/04 22:53:59;;;;;;;29.83;21.08;;;;;;;;;;5131837;27;20062;-75
2022/01/04 22:56:26;;;;;;;31.60;20.55;;;;;;;;;;5132177;27;20072;-75
2022/01/04 22:58:54;;;;;;;30.42;19.27;;;;;;;;;;5108446;27;20482;-75
2022/01/04 23:01:21;;;;;;;29.10;18.95;;;;;;;;;;5112466;27;20460;-74
2022/01/04 23:03:49;;;;;;;30.35;19.70;;;;;;;;;;5112005;27;20051;-75
2022/01/04 23:06:16;;;;;;;45.17;22.80;;;;;;;;;;5093810;28;20570;-75
2022/01/04 23:08:44;;;;;;;30.40;23.23;;;;;;;;;;5112093;28;20039;-75
2022/01/04 23:11:11;;;;;;;31.63;19.98;;;;;;;;;;5111761;28;20047;-75
2022/01/04 23:13:39;;;;;;;29.58;20.42;;;;;;;;;;5112669;28;20066;-74
2022/01/04 23:16:07;;;;;;;32.03;20.50;;;;;;;;;;5111747;28;20043;-75
2022/01/04 23:18:34;;;;;;;28.20;18.33;;;;;;;;;;5111615;28;20098;-75
2022/01/04 23:21:02;;;;;;;27.30;19.98;;;;;;;;;;5111316;28;20056;-74
2022/01/04 23:23:29;;;;;;;28.80;20.15;;;;;;;;;;5093285;28;20051;-74
2022/01/04 23:25:56;;;;;;;27.23;19.23;;;;;;;;;;5112087;28;20047;-75
2022/01/04 23:28:26;;;;;;;32.90;20.75;;;;;;;;;;5117867;28;20455;-74
2022/01/04 23:30:54;;;;;;;31.30;19.60;;;;;;;;;;5128593;28;20510;-74
2022/01/04 23:33:21;;;;;;;24.92;16.48;;;;;;;;;;5111745;28;20507;-74
2022/01/04 23:35:48;;;;;;;30.60;20.42;;;;;;;;;;5111809;28;20124;-75
2022/01/04 23:38:15;;;;;;;26.08;18.90;;;;;;;;;;5093376;28;20127;-75
2022/01/04 23:40:42;;;;;;;32.35;22.98;;;;;;;;;;5093724;28;20118;-74
2022/01/04 23:43:11;;;;;;;28.10;21.20;;;;;;;;;;5111881;28;20055;-75
2022/01/04 23:45:38;;;;;;;31.75;19.98;;;;;;;;;;5093281;28;20562;-74
2022/01/04 23:48:05;;;;;;;26.23;19.98;;;;;;;;;;5111302;28;20043;-75
2022/01/04 23:50:32;;;;;;;28.65;18.38;;;;;;;;;;5111354;28;20067;-75
2022/01/04 23:52:59;;;;;;;27.98;18.05;;;;;;;;;;5111210;28;20126;-75
2022/01/04 23:55:27;;;;;;;23.98;18.98;;;;;;;;;;5111608;28;20056;-74
2022/01/04 23:57:54;;;;;;;23.55;16.70;;;;;;;;;;5111474;28;20048;-74
